Kirtland AFB, New Mexico
Current Conditions -  °F | °C
As of 12:52 AM on Wednesday 26 Nov 2014 (Local Time) from KABQ Reporting Station
Clear Clear  
Wind Chill: 35°   Ceiling: Unl
Heat Index: 40°   Visibility: 10mi
Dew Point:   Wind: 7mph
Humidity: 27%   Direction: 330°NNW
Pressure: 30.32"   Gusts: NA
Location:  35.03°N, 106.56°W
Report Text: KABQ 260752Z 33006KT 10SM CLR 04/M13 A3032 RMK AO2 SLP254 T00441133
Loading
Personal Weather Stations






























Interactive Weather Map New forecast layout! Learn more

10-Day Weather Forecast

Advertisements
Track Severe Weather on mobile